sensor_id;sensor_type;location;lat;lon;timestamp;temperature;humidity
70456;DHT22;57916;51.996;5.180;2023-11-19T00:00:16;16.90;86.90
70456;DHT22;57916;51.996;5.180;2023-11-19T00:02:43;16.90;86.90
70456;DHT22;57916;51.996;5.180;2023-11-19T00:05:11;16.90;86.90
70456;DHT22;57916;51.996;5.180;2023-11-19T00:07:41;16.90;86.80
70456;DHT22;57916;51.996;5.180;2023-11-19T00:12:42;16.90;86.70
70456;DHT22;57916;51.996;5.180;2023-11-19T00:15:10;16.90;86.60
70456;DHT22;57916;51.996;5.180;2023-11-19T00:17:42;16.90;86.60
70456;DHT22;57916;51.996;5.180;2023-11-19T00:20:16;16.90;86.40
70456;DHT22;57916;51.996;5.180;2023-11-19T00:22:43;16.90;86.40
70456;DHT22;57916;51.996;5.180;2023-11-19T00:25:13;16.90;86.50
70456;DHT22;57916;51.996;5.180;2023-11-19T00:27:40;16.90;86.40
70456;DHT22;57916;51.996;5.180;2023-11-19T00:30:07;17.00;86.40
70456;DHT22;57916;51.996;5.180;2023-11-19T00:32:35;17.00;86.40
70456;DHT22;57916;51.996;5.180;2023-11-19T00:35:04;17.00;86.10
70456;DHT22;57916;51.996;5.180;2023-11-19T00:37:31;17.00;86.10
70456;DHT22;57916;51.996;5.180;2023-11-19T00:39:58;17.00;86.00
70456;DHT22;57916;51.996;5.180;2023-11-19T00:42:25;17.00;86.10
70456;DHT22;57916;51.996;5.180;2023-11-19T00:44:52;17.00;86.10
70456;DHT22;57916;51.996;5.180;2023-11-19T00:47:19;17.00;86.00
70456;DHT22;57916;51.996;5.180;2023-11-19T00:49:49;16.90;86.00
70456;DHT22;57916;51.996;5.180;2023-11-19T00:52:17;16.90;86.00
70456;DHT22;57916;51.996;5.180;2023-11-19T00:54:44;17.00;85.90
70456;DHT22;57916;51.996;5.180;2023-11-19T00:57:11;17.00;85.80
70456;DHT22;57916;51.996;5.180;2023-11-19T00:59:42;17.00;85.80
70456;DHT22;57916;51.996;5.180;2023-11-19T01:02:09;17.00;85.80
70456;DHT22;57916;51.996;5.180;2023-11-19T01:04:36;17.00;85.70
70456;DHT22;57916;51.996;5.180;2023-11-19T01:07:04;17.00;86.50
70456;DHT22;57916;51.996;5.180;2023-11-19T01:09:34;16.90;85.70
70456;DHT22;57916;51.996;5.180;2023-11-19T01:12:02;16.90;85.70
70456;DHT22;57916;51.996;5.180;2023-11-19T01:14:30;16.90;85.70
70456;DHT22;57916;51.996;5.180;2023-11-19T01:16:57;16.90;85.60
70456;DHT22;57916;51.996;5.180;2023-11-19T01:19:25;16.90;85.50
70456;DHT22;57916;51.996;5.180;2023-11-19T01:21:52;16.90;85.30
70456;DHT22;57916;51.996;5.180;2023-11-19T01:24:21;16.90;85.10
70456;DHT22;57916;51.996;5.180;2023-11-19T01:26:48;16.90;84.80
70456;DHT22;57916;51.996;5.180;2023-11-19T01:29:15;16.90;84.60
70456;DHT22;57916;51.996;5.180;2023-11-19T01:31:43;16.90;84.40
70456;DHT22;57916;51.996;5.180;2023-11-19T01:34:12;16.90;84.20
70456;DHT22;57916;51.996;5.180;2023-11-19T01:36:39;16.90;84.10
70456;DHT22;57916;51.996;5.180;2023-11-19T01:39:06;16.90;83.80
70456;DHT22;57916;51.996;5.180;2023-11-19T01:41:37;16.80;83.70
70456;DHT22;57916;51.996;5.180;2023-11-19T01:44:08;16.80;83.60
70456;DHT22;57916;51.996;5.180;2023-11-19T01:46:36;16.80;83.40
70456;DHT22;57916;51.996;5.180;2023-11-19T01:49:04;16.80;83.40
70456;DHT22;57916;51.996;5.180;2023-11-19T01:51:32;16.70;83.30
70456;DHT22;57916;51.996;5.180;2023-11-19T01:53:59;16.70;83.10
70456;DHT22;57916;51.996;5.180;2023-11-19T01:56:27;16.70;82.90
70456;DHT22;57916;51.996;5.180;2023-11-19T01:58:54;16.60;82.80
70456;DHT22;57916;51.996;5.180;2023-11-19T02:01:23;16.60;82.70
70456;DHT22;57916;51.996;5.180;2023-11-19T02:03:51;16.60;82.70
70456;DHT22;57916;51.996;5.180;2023-11-19T02:06:19;16.60;82.70
70456;DHT22;57916;51.996;5.180;2023-11-19T02:08:46;16.50;82.60
70456;DHT22;57916;51.996;5.180;2023-11-19T02:11:13;16.50;82.50
70456;DHT22;57916;51.996;5.180;2023-11-19T02:13:40;16.40;82.30
70456;DHT22;57916;51.996;5.180;2023-11-19T02:16:08;16.40;82.40
70456;DHT22;57916;51.996;5.180;2023-11-19T02:18:36;16.40;82.40
70456;DHT22;57916;51.996;5.180;2023-11-19T02:21:03;16.30;82.30
70456;DHT22;57916;51.996;5.180;2023-11-19T02:23:32;16.30;82.30
70456;DHT22;57916;51.996;5.180;2023-11-19T02:26:03;16.30;82.20
70456;DHT22;57916;51.996;5.180;2023-11-19T02:28:36;16.30;82.20
70456;DHT22;57916;51.996;5.180;2023-11-19T02:31:04;16.20;82.20
70456;DHT22;57916;51.996;5.180;2023-11-19T02:33:38;16.10;82.20
70456;DHT22;57916;51.996;5.180;2023-11-19T02:36:07;16.10;82.20
70456;DHT22;57916;51.996;5.180;2023-11-19T02:38:35;16.10;82.30
70456;DHT22;57916;51.996;5.180;2023-11-19T02:41:06;16.10;82.40
70456;DHT22;57916;51.996;5.180;2023-11-19T02:43:35;16.00;82.40
70456;DHT22;57916;51.996;5.180;2023-11-19T02:46:04;16.00;82.50
70456;DHT22;57916;51.996;5.180;2023-11-19T02:48:37;15.90;82.40
70456;DHT22;57916;51.996;5.180;2023-11-19T02:51:06;15.90;82.40
70456;DHT22;57916;51.996;5.180;2023-11-19T02:53:37;15.90;82.50
70456;DHT22;57916;51.996;5.180;2023-11-19T02:56:05;15.90;82.50
70456;DHT22;57916;51.996;5.180;2023-11-19T02:58:38;15.80;82.50
70456;DHT22;57916;51.996;5.180;2023-11-19T03:01:05;15.90;82.30
70456;DHT22;57916;51.996;5.180;2023-11-19T03:03:50;15.80;82.20
70456;DHT22;57916;51.996;5.180;2023-11-19T03:06:24;15.70;82.40
70456;DHT22;57916;51.996;5.180;2023-11-19T03:08:51;15.70;82.40
70456;DHT22;57916;51.996;5.180;2023-11-19T03:11:19;15.70;82.70
70456;DHT22;57916;51.996;5.180;2023-11-19T03:13:46;15.70;82.70
70456;DHT22;57916;51.996;5.180;2023-11-19T03:16:13;15.70;82.70
70456;DHT22;57916;51.996;5.180;2023-11-19T03:18:40;15.70;82.50
70456;DHT22;57916;51.996;5.180;2023-11-19T03:21:07;15.60;82.50
70456;DHT22;57916;51.996;5.180;2023-11-19T03:23:35;15.60;82.30
70456;DHT22;57916;51.996;5.180;2023-11-19T03:26:03;15.60;82.30
70456;DHT22;57916;51.996;5.180;2023-11-19T03:28:32;15.60;82.20
70456;DHT22;57916;51.996;5.180;2023-11-19T03:30:59;15.60;82.10
70456;DHT22;57916;51.996;5.180;2023-11-19T03:33:27;15.60;82.10
70456;DHT22;57916;51.996;5.180;2023-11-19T03:35:56;15.50;82.10
70456;DHT22;57916;51.996;5.180;2023-11-19T03:38:24;15.50;81.90
70456;DHT22;57916;51.996;5.180;2023-11-19T03:40:53;15.50;81.90
70456;DHT22;57916;51.996;5.180;2023-11-19T03:43:20;15.50;82.00
70456;DHT22;57916;51.996;5.180;2023-11-19T03:45:47;15.50;82.00
70456;DHT22;57916;51.996;5.180;2023-11-19T03:48:15;15.40;82.00
70456;DHT22;57916;51.996;5.180;2023-11-19T03:50:43;15.40;82.00
70456;DHT22;57916;51.996;5.180;2023-11-19T03:53:12;15.40;82.70
70456;DHT22;57916;51.996;5.180;2023-11-19T03:55:39;15.40;81.90
70456;DHT22;57916;51.996;5.180;2023-11-19T03:58:06;15.40;81.80
70456;DHT22;57916;51.996;5.180;2023-11-19T04:00:33;15.40;81.80
70456;DHT22;57916;51.996;5.180;2023-11-19T04:03:00;15.30;81.60
70456;DHT22;57916;51.996;5.180;2023-11-19T04:05:27;15.30;81.60
70456;DHT22;57916;51.996;5.180;2023-11-19T04:07:54;15.30;81.60
70456;DHT22;57916;51.996;5.180;2023-11-19T04:10:21;15.30;81.60
70456;DHT22;57916;51.996;5.180;2023-11-19T04:12:50;15.30;81.50
70456;DHT22;57916;51.996;5.180;2023-11-19T04:15:16;15.30;81.50
70456;DHT22;57916;51.996;5.180;2023-11-19T04:17:44;15.20;81.40
70456;DHT22;57916;51.996;5.180;2023-11-19T04:20:12;15.20;81.30
70456;DHT22;57916;51.996;5.180;2023-11-19T04:22:41;15.20;81.30
70456;DHT22;57916;51.996;5.180;2023-11-19T04:25:08;15.20;81.20
70456;DHT22;57916;51.996;5.180;2023-11-19T04:27:36;15.20;81.10
70456;DHT22;57916;51.996;5.180;2023-11-19T04:30:04;15.20;81.00
70456;DHT22;57916;51.996;5.180;2023-11-19T04:32:31;15.20;80.80
70456;DHT22;57916;51.996;5.180;2023-11-19T04:34:58;15.20;80.80
70456;DHT22;57916;51.996;5.180;2023-11-19T04:37:25;15.10;80.70
70456;DHT22;57916;51.996;5.180;2023-11-19T04:39:52;15.20;80.60
70456;DHT22;57916;51.996;5.180;2023-11-19T04:42:22;15.10;80.50
70456;DHT22;57916;51.996;5.180;2023-11-19T04:44:49;15.10;80.60
70456;DHT22;57916;51.996;5.180;2023-11-19T04:47:15;15.10;80.40
70456;DHT22;57916;51.996;5.180;2023-11-19T04:49:43;15.10;80.50
70456;DHT22;57916;51.996;5.180;2023-11-19T04:52:10;15.10;80.40
70456;DHT22;57916;51.996;5.180;2023-11-19T04:54:42;15.10;80.20
70456;DHT22;57916;51.996;5.180;2023-11-19T04:57:10;15.10;80.20
70456;DHT22;57916;51.996;5.180;2023-11-19T04:59:38;15.00;80.20
70456;DHT22;57916;51.996;5.180;2023-11-19T05:02:05;15.00;80.30
70456;DHT22;57916;51.996;5.180;2023-11-19T05:04:32;15.00;80.30
70456;DHT22;57916;51.996;5.180;2023-11-19T05:06:59;15.00;80.30
70456;DHT22;57916;51.996;5.180;2023-11-19T05:09:26;15.00;80.40
70456;DHT22;57916;51.996;5.180;2023-11-19T05:11:53;15.00;80.40
70456;DHT22;57916;51.996;5.180;2023-11-19T05:14:20;14.90;80.40
70456;DHT22;57916;51.996;5.180;2023-11-19T05:16:48;14.90;80.40
70456;DHT22;57916;51.996;5.180;2023-11-19T05:19:16;14.90;80.40
70456;DHT22;57916;51.996;5.180;2023-11-19T05:21:43;14.90;80.50
70456;DHT22;57916;51.996;5.180;2023-11-19T05:24:10;14.90;80.50
70456;DHT22;57916;51.996;5.180;2023-11-19T05:26:39;14.90;80.50
70456;DHT22;57916;51.996;5.180;2023-11-19T05:29:06;14.90;80.50
70456;DHT22;57916;51.996;5.180;2023-11-19T05:31:32;14.90;80.50
70456;DHT22;57916;51.996;5.180;2023-11-19T05:34:03;14.90;80.50
70456;DHT22;57916;51.996;5.180;2023-11-19T05:36:31;14.90;80.50
70456;DHT22;57916;51.996;5.180;2023-11-19T05:38:58;14.90;80.50
70456;DHT22;57916;51.996;5.180;2023-11-19T05:41:25;14.90;80.50
70456;DHT22;57916;51.996;5.180;2023-11-19T05:43:52;14.90;80.40
70456;DHT22;57916;51.996;5.180;2023-11-19T05:46:19;14.80;80.40
70456;DHT22;57916;51.996;5.180;2023-11-19T05:48:47;14.80;80.50
70456;DHT22;57916;51.996;5.180;2023-11-19T05:51:15;14.80;80.50
70456;DHT22;57916;51.996;5.180;2023-11-19T05:53:42;14.80;80.60
70456;DHT22;57916;51.996;5.180;2023-11-19T05:56:09;14.80;81.00
70456;DHT22;57916;51.996;5.180;2023-11-19T05:58:37;14.80;80.60
70456;DHT22;57916;51.996;5.180;2023-11-19T06:01:06;14.80;80.70
70456;DHT22;57916;51.996;5.180;2023-11-19T06:03:35;14.80;80.50
70456;DHT22;57916;51.996;5.180;2023-11-19T06:06:03;14.80;80.50
70456;DHT22;57916;51.996;5.180;2023-11-19T06:08:32;14.80;80.50
70456;DHT22;57916;51.996;5.180;2023-11-19T06:10:58;14.80;80.50
70456;DHT22;57916;51.996;5.180;2023-11-19T06:13:27;14.80;80.50
70456;DHT22;57916;51.996;5.180;2023-11-19T06:15:58;14.80;80.60
70456;DHT22;57916;51.996;5.180;2023-11-19T06:18:25;14.80;80.50
70456;DHT22;57916;51.996;5.180;2023-11-19T06:20:52;14.80;80.50
70456;DHT22;57916;51.996;5.180;2023-11-19T06:23:19;14.80;80.40
70456;DHT22;57916;51.996;5.180;2023-11-19T06:25:46;14.80;80.40
70456;DHT22;57916;51.996;5.180;2023-11-19T06:28:13;14.80;80.40
70456;DHT22;57916;51.996;5.180;2023-11-19T06:30:41;14.80;80.40
70456;DHT22;57916;51.996;5.180;2023-11-19T06:33:08;14.80;80.40
70456;DHT22;57916;51.996;5.180;2023-11-19T06:35:35;14.80;80.50
70456;DHT22;57916;51.996;5.180;2023-11-19T06:38:03;14.80;80.40
70456;DHT22;57916;51.996;5.180;2023-11-19T06:40:34;14.80;80.30
70456;DHT22;57916;51.996;5.180;2023-11-19T06:43:04;14.80;80.30
70456;DHT22;57916;51.996;5.180;2023-11-19T06:45:31;14.70;80.20
70456;DHT22;57916;51.996;5.180;2023-11-19T06:48:01;14.70;80.30
70456;DHT22;57916;51.996;5.180;2023-11-19T06:50:33;14.70;80.10
70456;DHT22;57916;51.996;5.180;2023-11-19T06:53:00;14.70;80.30
70456;DHT22;57916;51.996;5.180;2023-11-19T06:55:27;14.70;80.30
70456;DHT22;57916;51.996;5.180;2023-11-19T06:57:54;14.70;80.30
70456;DHT22;57916;51.996;5.180;2023-11-19T07:00:21;14.70;80.30
70456;DHT22;57916;51.996;5.180;2023-11-19T07:02:48;14.70;80.30
70456;DHT22;57916;51.996;5.180;2023-11-19T07:05:16;14.70;80.40
70456;DHT22;57916;51.996;5.180;2023-11-19T07:07:43;14.70;80.40
70456;DHT22;57916;51.996;5.180;2023-11-19T07:10:13;14.70;80.40
70456;DHT22;57916;51.996;5.180;2023-11-19T07:12:43;14.70;80.40
70456;DHT22;57916;51.996;5.180;2023-11-19T07:15:11;14.70;80.40
70456;DHT22;57916;51.996;5.180;2023-11-19T07:17:39;14.70;80.40
70456;DHT22;57916;51.996;5.180;2023-11-19T07:20:07;14.70;80.50
70456;DHT22;57916;51.996;5.180;2023-11-19T07:22:34;14.70;80.80
70456;DHT22;57916;51.996;5.180;2023-11-19T07:25:01;14.70;80.80
70456;DHT22;57916;51.996;5.180;2023-11-19T07:27:29;14.70;80.90
70456;DHT22;57916;51.996;5.180;2023-11-19T07:29:56;14.70;81.00
70456;DHT22;57916;51.996;5.180;2023-11-19T07:32:23;14.80;81.00
70456;DHT22;57916;51.996;5.180;2023-11-19T07:34:50;14.80;81.10
70456;DHT22;57916;51.996;5.180;2023-11-19T07:37:17;14.80;81.10
70456;DHT22;57916;51.996;5.180;2023-11-19T07:39:44;14.80;81.10
70456;DHT22;57916;51.996;5.180;2023-11-19T07:42:13;14.90;81.10
70456;DHT22;57916;51.996;5.180;2023-11-19T07:44:40;14.90;81.10
70456;DHT22;57916;51.996;5.180;2023-11-19T07:47:08;14.90;80.90
70456;DHT22;57916;51.996;5.180;2023-11-19T07:49:36;14.90;80.60
70456;DHT22;57916;51.996;5.180;2023-11-19T07:52:03;14.90;80.60
70456;DHT22;57916;51.996;5.180;2023-11-19T07:54:30;14.90;80.70
70456;DHT22;57916;51.996;5.180;2023-11-19T07:56:57;14.90;80.60
70456;DHT22;57916;51.996;5.180;2023-11-19T07:59:24;14.90;80.70
70456;DHT22;57916;51.996;5.180;2023-11-19T08:01:51;15.00;80.70
70456;DHT22;57916;51.996;5.180;2023-11-19T08:04:18;15.00;80.60
70456;DHT22;57916;51.996;5.180;2023-11-19T08:06:45;15.00;80.60
70456;DHT22;57916;51.996;5.180;2023-11-19T08:09:12;15.00;80.60
70456;DHT22;57916;51.996;5.180;2023-11-19T08:11:41;15.00;80.50
70456;DHT22;57916;51.996;5.180;2023-11-19T08:14:08;15.00;80.40
70456;DHT22;57916;51.996;5.180;2023-11-19T08:16:36;15.10;80.30
70456;DHT22;57916;51.996;5.180;2023-11-19T08:19:04;15.10;80.20
70456;DHT22;57916;51.996;5.180;2023-11-19T08:21:31;15.10;80.40
70456;DHT22;57916;51.996;5.180;2023-11-19T08:23:58;15.10;80.20
70456;DHT22;57916;51.996;5.180;2023-11-19T08:26:25;15.20;80.10
70456;DHT22;57916;51.996;5.180;2023-11-19T08:28:52;15.20;79.90
70456;DHT22;57916;51.996;5.180;2023-11-19T08:31:19;15.30;79.80
70456;DHT22;57916;51.996;5.180;2023-11-19T08:33:46;15.30;79.80
70456;DHT22;57916;51.996;5.180;2023-11-19T08:36:16;15.30;80.00
70456;DHT22;57916;51.996;5.180;2023-11-19T08:38:44;15.30;79.70
70456;DHT22;57916;51.996;5.180;2023-11-19T08:41:11;15.40;79.60
70456;DHT22;57916;51.996;5.180;2023-11-19T08:43:38;15.40;79.40
70456;DHT22;57916;51.996;5.180;2023-11-19T08:46:10;15.50;79.30
70456;DHT22;57916;51.996;5.180;2023-11-19T08:48:38;15.50;79.30
70456;DHT22;57916;51.996;5.180;2023-11-19T08:51:05;15.50;78.90
70456;DHT22;57916;51.996;5.180;2023-11-19T08:53:33;15.60;79.20
70456;DHT22;57916;51.996;5.180;2023-11-19T08:56:01;15.60;78.80
70456;DHT22;57916;51.996;5.180;2023-11-19T08:58:30;15.70;78.40
70456;DHT22;57916;51.996;5.180;2023-11-19T09:00:58;15.70;78.20
70456;DHT22;57916;51.996;5.180;2023-11-19T09:03:26;15.70;78.10
70456;DHT22;57916;51.996;5.180;2023-11-19T09:05:54;15.70;78.40
70456;DHT22;57916;51.996;5.180;2023-11-19T09:08:21;15.80;78.80
70456;DHT22;57916;51.996;5.180;2023-11-19T09:10:48;15.90;78.80
70456;DHT22;57916;51.996;5.180;2023-11-19T09:13:15;16.10;78.50
70456;DHT22;57916;51.996;5.180;2023-11-19T09:15:42;16.10;78.70
70456;DHT22;57916;51.996;5.180;2023-11-19T09:18:10;16.20;77.30
70456;DHT22;57916;51.996;5.180;2023-11-19T09:20:37;16.20;76.60
70456;DHT22;57916;51.996;5.180;2023-11-19T09:23:06;16.20;76.50
70456;DHT22;57916;51.996;5.180;2023-11-19T09:25:34;16.20;76.90
70456;DHT22;57916;51.996;5.180;2023-11-19T09:28:05;16.30;77.10
70456;DHT22;57916;51.996;5.180;2023-11-19T09:30:33;16.40;77.40
70456;DHT22;57916;51.996;5.180;2023-11-19T09:33:00;16.50;77.30
70456;DHT22;57916;51.996;5.180;2023-11-19T09:35:28;16.50;76.60
70456;DHT22;57916;51.996;5.180;2023-11-19T09:37:55;16.70;76.50
70456;DHT22;57916;51.996;5.180;2023-11-19T09:40:22;16.80;76.20
70456;DHT22;57916;51.996;5.180;2023-11-19T09:42:49;16.80;75.70
70456;DHT22;57916;51.996;5.180;2023-11-19T09:45:17;16.90;75.00
70456;DHT22;57916;51.996;5.180;2023-11-19T09:47:47;16.90;74.30
70456;DHT22;57916;51.996;5.180;2023-11-19T09:50:18;16.90;74.10
70456;DHT22;57916;51.996;5.180;2023-11-19T09:52:46;16.90;73.60
70456;DHT22;57916;51.996;5.180;2023-11-19T09:55:14;16.90;73.60
70456;DHT22;57916;51.996;5.180;2023-11-19T09:57:41;16.90;73.50
70456;DHT22;57916;51.996;5.180;2023-11-19T10:00:12;16.80;73.50
70456;DHT22;57916;51.996;5.180;2023-11-19T10:02:43;16.70;73.80
70456;DHT22;57916;51.996;5.180;2023-11-19T10:05:14;16.70;74.30
70456;DHT22;57916;51.996;5.180;2023-11-19T10:07:42;16.70;74.50
70456;DHT22;57916;51.996;5.180;2023-11-19T10:10:10;16.70;74.80
70456;DHT22;57916;51.996;5.180;2023-11-19T10:12:41;16.80;74.70
70456;DHT22;57916;51.996;5.180;2023-11-19T10:15:24;16.80;74.80
70456;DHT22;57916;51.996;5.180;2023-11-19T10:17:57;16.80;74.50
70456;DHT22;57916;51.996;5.180;2023-11-19T10:20:24;16.80;74.30
70456;DHT22;57916;51.996;5.180;2023-11-19T10:22:55;16.80;74.30
70456;DHT22;57916;51.996;5.180;2023-11-19T10:25:27;16.90;74.20
70456;DHT22;57916;51.996;5.180;2023-11-19T10:27:56;16.90;73.90
70456;DHT22;57916;51.996;5.180;2023-11-19T10:30:25;16.80;73.80
70456;DHT22;57916;51.996;5.180;2023-11-19T10:38:21;16.90;74.60
70456;DHT22;57916;51.996;5.180;2023-11-19T10:40:49;16.90;74.20
70456;DHT22;57916;51.996;5.180;2023-11-19T10:43:20;17.00;73.80
70456;DHT22;57916;51.996;5.180;2023-11-19T10:45:51;17.00;73.70
70456;DHT22;57916;51.996;5.180;2023-11-19T10:48:18;17.00;73.50
70456;DHT22;57916;51.996;5.180;2023-11-19T10:50:49;17.00;73.20
70456;DHT22;57916;51.996;5.180;2023-11-19T10:53:20;17.00;73.40
70456;DHT22;57916;51.996;5.180;2023-11-19T10:55:48;17.00;73.50
70456;DHT22;57916;51.996;5.180;2023-11-19T10:58:16;17.00;73.50
70456;DHT22;57916;51.996;5.180;2023-11-19T11:00:51;17.10;73.40
70456;DHT22;57916;51.996;5.180;2023-11-19T11:03:20;17.10;73.70
70456;DHT22;57916;51.996;5.180;2023-11-19T11:05:49;17.10;73.10
70456;DHT22;57916;51.996;5.180;2023-11-19T11:08:17;17.10;72.80
70456;DHT22;57916;51.996;5.180;2023-11-19T11:10:53;17.10;73.10
70456;DHT22;57916;51.996;5.180;2023-11-19T11:13:24;17.10;73.30
70456;DHT22;57916;51.996;5.180;2023-11-19T11:15:51;17.20;73.10
70456;DHT22;57916;51.996;5.180;2023-11-19T11:18:18;17.20;73.80
70456;DHT22;57916;51.996;5.180;2023-11-19T11:20:46;17.20;73.60
70456;DHT22;57916;51.996;5.180;2023-11-19T11:23:53;17.20;73.20
70456;DHT22;57916;51.996;5.180;2023-11-19T11:26:41;17.20;73.00
70456;DHT22;57916;51.996;5.180;2023-11-19T11:39:53;17.00;72.90
70456;DHT22;57916;51.996;5.180;2023-11-19T11:45:07;16.90;73.20
70456;DHT22;57916;51.996;5.180;2023-11-19T11:50:16;16.90;73.30
70456;DHT22;57916;51.996;5.180;2023-11-19T11:55:35;16.90;73.40
70456;DHT22;57916;51.996;5.180;2023-11-19T11:58:06;16.90;73.30
70456;DHT22;57916;51.996;5.180;2023-11-19T12:00:37;16.90;73.60
70456;DHT22;57916;51.996;5.180;2023-11-19T12:03:06;16.90;73.00
70456;DHT22;57916;51.996;5.180;2023-11-19T12:05:43;17.00;72.80
70456;DHT22;57916;51.996;5.180;2023-11-19T12:08:19;17.00;73.20
70456;DHT22;57916;51.996;5.180;2023-11-19T12:10:56;17.10;73.50
70456;DHT22;57916;51.996;5.180;2023-11-19T12:14:01;17.20;73.50
70456;DHT22;57916;51.996;5.180;2023-11-19T12:16:29;17.30;72.80
70456;DHT22;57916;51.996;5.180;2023-11-19T12:19:02;17.20;72.50
70456;DHT22;57916;51.996;5.180;2023-11-19T12:21:31;17.20;72.50
70456;DHT22;57916;51.996;5.180;2023-11-19T12:23:59;17.20;72.60
70456;DHT22;57916;51.996;5.180;2023-11-19T12:26:38;17.20;72.50
70456;DHT22;57916;51.996;5.180;2023-11-19T12:29:05;17.20;72.60
70456;DHT22;57916;51.996;5.180;2023-11-19T12:31:35;17.20;73.70
70456;DHT22;57916;51.996;5.180;2023-11-19T12:34:06;17.30;72.70
70456;DHT22;57916;51.996;5.180;2023-11-19T12:36:34;17.30;72.50
70456;DHT22;57916;51.996;5.180;2023-11-19T12:39:01;17.30;72.20
70456;DHT22;57916;51.996;5.180;2023-11-19T12:41:28;17.30;72.50
70456;DHT22;57916;51.996;5.180;2023-11-19T12:44:09;17.30;72.40
70456;DHT22;57916;51.996;5.180;2023-11-19T12:46:37;17.30;72.00
70456;DHT22;57916;51.996;5.180;2023-11-19T12:49:04;17.30;72.20
70456;DHT22;57916;51.996;5.180;2023-11-19T12:51:32;17.30;72.30
70456;DHT22;57916;51.996;5.180;2023-11-19T12:54:00;17.30;71.90
70456;DHT22;57916;51.996;5.180;2023-11-19T12:56:27;17.30;71.80
70456;DHT22;57916;51.996;5.180;2023-11-19T12:58:54;17.30;71.50
70456;DHT22;57916;51.996;5.180;2023-11-19T13:01:21;17.30;71.40
70456;DHT22;57916;51.996;5.180;2023-11-19T13:03:48;17.30;71.80
70456;DHT22;57916;51.996;5.180;2023-11-19T13:06:17;17.20;71.80
70456;DHT22;57916;51.996;5.180;2023-11-19T13:08:50;17.10;71.70
70456;DHT22;57916;51.996;5.180;2023-11-19T13:11:32;17.10;71.80
70456;DHT22;57916;51.996;5.180;2023-11-19T13:14:06;17.10;73.40
70456;DHT22;57916;51.996;5.180;2023-11-19T13:16:37;17.00;73.20
70456;DHT22;57916;51.996;5.180;2023-11-19T13:19:04;17.00;73.20
70456;DHT22;57916;51.996;5.180;2023-11-19T13:21:32;16.90;73.60
70456;DHT22;57916;51.996;5.180;2023-11-19T13:23:59;16.80;74.50
70456;DHT22;57916;51.996;5.180;2023-11-19T13:26:26;16.70;75.60
70456;DHT22;57916;51.996;5.180;2023-11-19T13:28:53;16.70;76.60
70456;DHT22;57916;51.996;5.180;2023-11-19T13:31:20;16.60;77.00
70456;DHT22;57916;51.996;5.180;2023-11-19T13:33:48;16.50;76.90
70456;DHT22;57916;51.996;5.180;2023-11-19T13:36:15;16.50;77.30
70456;DHT22;57916;51.996;5.180;2023-11-19T13:38:43;16.40;77.20
70456;DHT22;57916;51.996;5.180;2023-11-19T13:41:14;16.40;77.20
70456;DHT22;57916;51.996;5.180;2023-11-19T13:43:41;16.40;76.90
70456;DHT22;57916;51.996;5.180;2023-11-19T13:46:08;16.40;76.80
70456;DHT22;57916;51.996;5.180;2023-11-19T13:48:38;16.40;77.00
70456;DHT22;57916;51.996;5.180;2023-11-19T13:51:06;16.40;77.00
70456;DHT22;57916;51.996;5.180;2023-11-19T13:53:33;16.40;76.80
70456;DHT22;57916;51.996;5.180;2023-11-19T13:56:03;16.40;76.70
70456;DHT22;57916;51.996;5.180;2023-11-19T13:58:30;16.40;77.20
70456;DHT22;57916;51.996;5.180;2023-11-19T14:00:57;16.50;77.10
70456;DHT22;57916;51.996;5.180;2023-11-19T14:03:24;16.50;77.00
70456;DHT22;57916;51.996;5.180;2023-11-19T14:05:52;16.50;77.10
70456;DHT22;57916;51.996;5.180;2023-11-19T14:08:21;16.60;76.50
70456;DHT22;57916;51.996;5.180;2023-11-19T14:10:52;16.60;76.00
70456;DHT22;57916;51.996;5.180;2023-11-19T14:13:23;16.60;75.40
70456;DHT22;57916;51.996;5.180;2023-11-19T14:15:50;16.60;75.20
70456;DHT22;57916;51.996;5.180;2023-11-19T14:18:18;16.60;75.90
70456;DHT22;57916;51.996;5.180;2023-11-19T14:20:45;16.60;74.70
70456;DHT22;57916;51.996;5.180;2023-11-19T14:23:14;16.60;74.50
70456;DHT22;57916;51.996;5.180;2023-11-19T14:25:40;16.60;74.40
70456;DHT22;57916;51.996;5.180;2023-11-19T14:28:08;16.50;74.20
70456;DHT22;57916;51.996;5.180;2023-11-19T14:30:34;16.50;74.10
70456;DHT22;57916;51.996;5.180;2023-11-19T14:33:02;16.50;74.30
70456;DHT22;57916;51.996;5.180;2023-11-19T14:35:30;16.40;74.30
70456;DHT22;57916;51.996;5.180;2023-11-19T14:37:57;16.40;74.40
70456;DHT22;57916;51.996;5.180;2023-11-19T14:40:24;16.40;75.20
70456;DHT22;57916;51.996;5.180;2023-11-19T14:42:54;16.40;74.40
70456;DHT22;57916;51.996;5.180;2023-11-19T14:45:21;16.30;74.40
70456;DHT22;57916;51.996;5.180;2023-11-19T14:47:49;16.30;74.60
70456;DHT22;57916;51.996;5.180;2023-11-19T14:50:17;16.30;74.40
70456;DHT22;57916;51.996;5.180;2023-11-19T14:52:43;16.30;74.20
70456;DHT22;57916;51.996;5.180;2023-11-19T14:55:10;16.30;74.30
70456;DHT22;57916;51.996;5.180;2023-11-19T14:57:38;16.30;74.30
70456;DHT22;57916;51.996;5.180;2023-11-19T15:00:06;16.30;74.30
70456;DHT22;57916;51.996;5.180;2023-11-19T15:02:43;16.30;74.10
70456;DHT22;57916;51.996;5.180;2023-11-19T15:05:10;16.40;74.10
70456;DHT22;57916;51.996;5.180;2023-11-19T15:07:37;16.40;73.90
70456;DHT22;57916;51.996;5.180;2023-11-19T15:10:05;16.40;73.90
70456;DHT22;57916;51.996;5.180;2023-11-19T15:12:37;16.40;73.60
70456;DHT22;57916;51.996;5.180;2023-11-19T15:15:07;16.40;73.50
70456;DHT22;57916;51.996;5.180;2023-11-19T15:17:36;16.40;73.50
70456;DHT22;57916;51.996;5.180;2023-11-19T15:20:03;16.30;73.40
70456;DHT22;57916;51.996;5.180;2023-11-19T15:22:31;16.30;73.50
70456;DHT22;57916;51.996;5.180;2023-11-19T15:24:58;16.30;73.50
70456;DHT22;57916;51.996;5.180;2023-11-19T15:27:25;16.30;73.50
70456;DHT22;57916;51.996;5.180;2023-11-19T15:29:52;16.20;73.40
70456;DHT22;57916;51.996;5.180;2023-11-19T15:32:19;16.20;73.70
70456;DHT22;57916;51.996;5.180;2023-11-19T15:34:46;16.20;73.50
70456;DHT22;57916;51.996;5.180;2023-11-19T15:37:13;16.20;73.70
70456;DHT22;57916;51.996;5.180;2023-11-19T15:39:41;16.20;73.80
70456;DHT22;57916;51.996;5.180;2023-11-19T15:42:08;16.20;73.80
70456;DHT22;57916;51.996;5.180;2023-11-19T15:44:37;16.20;73.60
70456;DHT22;57916;51.996;5.180;2023-11-19T15:47:05;16.30;73.80
70456;DHT22;57916;51.996;5.180;2023-11-19T15:49:32;16.20;73.60
70456;DHT22;57916;51.996;5.180;2023-11-19T15:51:59;16.20;74.50
70456;DHT22;57916;51.996;5.180;2023-11-19T15:54:26;16.20;73.90
70456;DHT22;57916;51.996;5.180;2023-11-19T15:56:53;16.20;74.10
70456;DHT22;57916;51.996;5.180;2023-11-19T15:59:20;16.10;74.50
70456;DHT22;57916;51.996;5.180;2023-11-19T16:01:47;16.10;75.10
70456;DHT22;57916;51.996;5.180;2023-11-19T16:04:15;16.00;75.50